Time;durP1;ratioP1;P1;durP2;ratioP2;P2;SDS_P1;SDS_P2;PMS_P1;PMS_P2;Temp;Humidity;BMP_temperature;BMP_pressure;BME280_temperature;BME280_humidity;BME280_pressure;Samples;Min_cycle;Max_cycle;Signal;HPM_P1;HPM_P2
2022/08/01 00:01:08;;;;;;;;;;;;;;;15.47;65.83;100249.78;5036397;28;1026;-61
2022/08/01 00:03:34;;;;;;;;;;;;;;;16.91;57.07;100244.31;5036140;28;994;-61
2022/08/01 00:05:59;;;;;;;;;;;;;;;17.95;57.18;100253.06;5036200;28;1061;-61
2022/08/01 00:08:25;;;;;;;;;;;;;;;15.16;63.40;100247.09;5035868;28;1108;-61
2022/08/01 00:10:50;;;;;;;;;;;;;;;17.82;61.80;100250.19;5036528;28;1933;-61
2022/08/01 00:13:15;;;;;;;;;;;;;;;18.58;60.09;100241.94;5038557;28;994;-61
2022/08/01 00:15:41;;;;;;;;;;;;;;;15.45;68.52;100241.03;5039312;28;1096;-61
2022/08/01 00:18:06;;;;;;;;;;;;;;;18.69;62.00;100240.69;5036177;28;990;-61
2022/08/01 00:20:32;;;;;;;;;;;;;;;16.34;64.86;100232.09;5036521;28;1232;-61
2022/08/01 00:22:57;;;;;;;;;;;;;;;16.14;65.81;100231.13;5035898;28;2702;-62
2022/08/01 00:25:22;;;;;;;;;;;;;;;18.69;61.73;100224.16;5042207;28;970;-61
2022/08/01 00:27:48;;;;;;;;;;;;;;;15.06;67.81;100228.78;5040991;28;1022;-61
2022/08/01 00:30:13;;;;;;;;;;;;;;;17.97;62.88;100235.44;5040059;28;1909;-61
2022/08/01 00:32:39;;;;;;;;;;;;;;;16.58;64.56;100229.47;5036076;28;1156;-61
2022/08/01 00:35:04;;;;;;;;;;;;;;;15.95;63.84;100219.16;5035953;28;1006;-61
2022/08/01 00:37:30;;;;;;;;;;;;;;;17.05;56.51;100221.63;5035819;28;1168;-61
2022/08/01 00:39:55;;;;;;;;;;;;;;;18.12;57.37;100215.97;5029609;28;1108;-61
2022/08/01 00:42:21;;;;;;;;;;;;;;;15.06;64.28;100221.38;5035967;28;1135;-61
2022/08/01 00:44:46;;;;;;;;;;;;;;;17.38;60.31;100221.84;5036003;28;1180;-61
2022/08/01 00:47:12;;;;;;;;;;;;;;;17.77;62.07;100215.31;5035699;28;990;-61
2022/08/01 00:49:37;;;;;;;;;;;;;;;15.67;65.35;100221.47;5035777;28;1910;-62
2022/08/01 00:52:04;;;;;;;;;;;;;;;17.97;60.87;100213.44;5017979;28;2571;-61
2022/08/01 00:54:29;;;;;;;;;;;;;;;15.54;65.24;100217.41;5035616;28;1065;-61
2022/08/01 00:56:55;;;;;;;;;;;;;;;16.52;59.86;100220.44;5035392;28;972;-61
2022/08/01 00:59:23;;;;;;;;;;;;;;;17.71;57.90;100222.81;5018274;28;1033;-61
2022/08/01 01:01:49;;;;;;;;;;;;;;;15.44;62.64;100225.66;5034889;28;993;-61
2022/08/01 01:04:14;;;;;;;;;;;;;;;17.41;63.01;100215.75;5039433;28;1069;-61
2022/08/01 01:07:06;;;;;;;;;;;;;;;18.73;59.78;100214.19;5039531;28;1199;-60
2022/08/01 01:09:40;;;;;;;;;;;;;;;15.38;65.32;100220.19;5035966;28;2214;-61
2022/08/01 01:12:09;;;;;;;;;;;;;;;18.42;61.54;100211.09;5034342;28;1040;-61
2022/08/01 01:14:37;;;;;;;;;;;;;;;15.35;64.63;100209.00;5039059;28;1089;-61
2022/08/01 01:17:03;;;;;;;;;;;;;;;16.46;59.20;100209.78;5021799;28;1169;-61
2022/08/01 01:19:30;;;;;;;;;;;;;;;18.10;59.20;100210.75;5027204;28;1034;-61
2022/08/01 01:21:58;;;;;;;;;;;;;;;15.06;63.92;100202.22;5038550;28;2494;-60
2022/08/01 01:24:42;;;;;;;;;;;;;;;17.68;62.04;100211.56;5034437;28;998;-61
2022/08/01 01:27:17;;;;;;;;;;;;;;;16.89;63.10;100213.53;5039078;28;1093;-61
2022/08/01 01:29:43;;;;;;;;;;;;;;;16.37;64.68;100212.31;5024722;28;2005;-61
2022/08/01 01:32:09;;;;;;;;;;;;;;;18.89;60.76;100211.19;5021253;28;1085;-61
2022/08/01 01:34:36;;;;;;;;;;;;;;;15.21;65.25;100206.84;5038800;28;1084;-61
2022/08/01 01:37:02;;;;;;;;;;;;;;;18.12;63.26;100214.03;5039496;28;1085;-61
2022/08/01 01:39:28;;;;;;;;;;;;;;;17.40;62.93;100214.13;5039095;28;1172;-61
2022/08/01 01:41:53;;;;;;;;;;;;;;;15.51;66.26;100217.97;5021244;28;990;-61
2022/08/01 01:44:19;;;;;;;;;;;;;;;17.07;56.66;100208.44;5039434;28;1100;-61
2022/08/01 01:46:44;;;;;;;;;;;;;;;17.30;53.77;100206.81;5038849;28;1009;-61
2022/08/01 01:49:10;;;;;;;;;;;;;;;17.23;52.56;100198.09;5020327;28;1989;-63
2022/08/01 01:51:35;;;;;;;;;;;;;;;17.24;51.39;100199.75;5020759;28;1137;-62
2022/08/01 01:54:01;;;;;;;;;;;;;;;18.31;54.89;100202.19;5027450;28;3013;-61
2022/08/01 01:56:26;;;;;;;;;;;;;;;14.86;64.07;100196.78;5020629;28;1267;-61
2022/08/01 01:58:52;;;;;;;;;;;;;;;18.24;59.53;100191.56;5020684;28;2285;-61
2022/08/01 02:01:18;;;;;;;;;;;;;;;17.27;62.43;100180.72;5038215;28;1231;-63
2022/08/01 02:03:43;;;;;;;;;;;;;;;15.63;65.83;100191.06;5038555;28;1052;-61
2022/08/01 02:06:09;;;;;;;;;;;;;;;18.60;61.29;100190.16;5038543;28;1005;-62
2022/08/01 02:08:34;;;;;;;;;;;;;;;15.54;65.39;100190.84;5038605;28;1223;-61
2022/08/01 02:11:18;;;;;;;;;;;;;;;17.18;64.53;100196.22;5025394;28;1934;-61
2022/08/01 02:13:43;;;;;;;;;;;;;;;17.27;63.55;100199.16;5026479;28;1057;-61
2022/08/01 02:16:11;;;;;;;;;;;;;;;15.69;65.84;100200.88;5020382;28;1109;-60
2022/08/01 02:18:36;;;;;;;;;;;;;;;18.55;62.24;100204.84;5038814;28;1255;-61
2022/08/01 02:21:02;;;;;;;;;;;;;;;15.57;65.97;100211.34;5024658;28;1037;-61
2022/08/01 02:23:28;;;;;;;;;;;;;;;16.65;60.65;100210.72;5024185;28;2841;-60
2022/08/01 02:25:53;;;;;;;;;;;;;;;17.17;55.59;100202.03;5023474;28;1243;-60
2022/08/01 02:28:26;;;;;;;;;;;;;;;17.27;53.32;100201.91;5020145;28;1062;-61
2022/08/01 02:30:51;;;;;;;;;;;;;;;18.23;56.26;100203.69;5020801;28;1901;-61
2022/08/01 02:33:21;;;;;;;;;;;;;;;14.68;63.79;100203.66;5037757;28;1013;-61
2022/08/01 02:35:48;;;;;;;;;;;;;;;18.19;60.57;100208.16;5020307;28;1128;-60
2022/08/01 02:38:13;;;;;;;;;;;;;;;16.99;62.85;100206.31;5019998;28;1018;-61
2022/08/01 02:40:40;;;;;;;;;;;;;;;16.14;64.03;100211.91;5038223;28;966;-61
2022/08/01 02:43:05;;;;;;;;;;;;;;;18.73;60.88;100208.66;5024031;28;1014;-61
2022/08/01 02:45:31;;;;;;;;;;;;;;;15.29;64.98;100210.94;5019920;28;1053;-60
2022/08/01 02:48:01;;;;;;;;;;;;;;;16.73;58.40;100220.25;5037832;28;1202;-62
2022/08/01 02:50:27;;;;;;;;;;;;;;;17.80;57.05;100211.97;5019926;28;1949;-61
2022/08/01 02:52:52;;;;;;;;;;;;;;;15.63;63.50;100204.78;5037798;28;2665;-61
2022/08/01 02:55:18;;;;;;;;;;;;;;;17.33;62.38;100211.72;5019915;28;1120;-61
2022/08/01 02:57:43;;;;;;;;;;;;;;;19.21;60.00;100206.72;5018749;28;1235;-61
2022/08/01 03:00:09;;;;;;;;;;;;;;;15.11;66.23;100208.78;5037022;28;930;-61
2022/08/01 03:02:35;;;;;;;;;;;;;;;17.88;62.72;100211.31;5037181;28;1064;-61
2022/08/01 03:05:00;;;;;;;;;;;;;;;16.68;64.55;100221.13;5023936;28;1186;-61
2022/08/01 03:07:26;;;;;;;;;;;;;;;16.49;65.39;100214.69;5037909;28;993;-61
2022/08/01 03:09:51;;;;;;;;;;;;;;;18.96;61.55;100214.34;5036821;28;1973;-61
2022/08/01 03:12:20;;;;;;;;;;;;;;;15.42;65.73;100211.41;5019619;28;1105;-61
2022/08/01 03:14:46;;;;;;;;;;;;;;;17.74;65.11;100219.47;5037139;28;1053;-61
2022/08/01 03:17:12;;;;;;;;;;;;;;;17.38;63.86;100219.91;5036975;28;1017;-61
2022/08/01 03:19:38;;;;;;;;;;;;;;;15.59;67.33;100213.84;5040558;28;997;-61
2022/08/01 03:22:06;;;;;;;;;;;;;;;17.06;57.67;100226.84;5039445;28;2720;-61
2022/08/01 03:24:31;;;;;;;;;;;;;;;17.31;54.43;100235.94;5022035;28;1389;-61
2022/08/01 03:26:57;;;;;;;;;;;;;;;17.32;52.70;100231.25;5018508;28;1037;-61
2022/08/01 03:29:23;;;;;;;;;;;;;;;17.40;52.36;100222.34;5036418;28;1906;-61
2022/08/01 03:31:48;;;;;;;;;;;;;;;16.72;59.57;100232.38;5036921;28;1057;-61
2022/08/01 03:34:14;;;;;;;;;;;;;;;16.52;61.76;100238.81;5036494;28;1148;-60
2022/08/01 03:36:45;;;;;;;;;;;;;;;18.82;60.04;100225.31;5037222;28;1099;-63
2022/08/01 03:39:10;;;;;;;;;;;;;;;15.46;64.97;100227.03;5036369;28;1080;-62
2022/08/01 03:41:37;;;;;;;;;;;;;;;16.64;59.75;100225.53;5036750;28;1061;-63
2022/08/01 03:44:07;;;;;;;;;;;;;;;17.16;54.96;100233.34;5040417;28;1100;-60
2022/08/01 03:46:35;;;;;;;;;;;;;;;17.25;52.92;100228.84;5015623;28;962;-60
2022/08/01 03:49:00;;;;;;;;;;;;;;;17.66;56.05;100231.13;5021507;28;1906;-60
2022/08/01 03:51:26;;;;;;;;;;;;;;;15.35;62.25;100231.72;5036558;28;1204;-61
2022/08/01 03:53:51;;;;;;;;;;;;;;;18.36;59.21;100224.13;5015736;28;2833;-60
2022/08/01 03:56:19;;;;;;;;;;;;;;;15.85;63.37;100218.13;5039287;28;1136;-60
2022/08/01 03:58:44;;;;;;;;;;;;;;;17.37;62.89;100229.25;5022510;28;856;-61
2022/08/01 04:01:09;;;;;;;;;;;;;;;18.88;59.42;100213.09;5017729;28;1209;-58
2022/08/01 04:03:35;;;;;;;;;;;;;;;15.25;66.58;100231.75;5018417;28;1272;-63
2022/08/01 04:06:03;;;;;;;;;;;;;;;16.98;57.33;100221.97;5037158;28;1251;-63
2022/08/01 04:08:38;;;;;;;;;;;;;;;17.27;53.94;100229.38;5029465;28;1081;-62
2022/08/01 04:11:03;;;;;;;;;;;;;;;17.61;53.76;100221.00;5037331;28;1984;-62
2022/08/01 04:13:30;;;;;;;;;;;;;;;15.65;60.85;100224.47;5044265;28;974;-63
2022/08/01 04:15:55;;;;;;;;;;;;;;;17.38;61.20;100225.41;5040169;28;994;-62
2022/08/01 04:18:21;;;;;;;;;;;;;;;19.06;58.83;100216.09;5042698;28;1065;-62
2022/08/01 04:20:46;;;;;;;;;;;;;;;15.01;64.94;100215.94;5038786;28;1160;-64
2022/08/01 04:23:12;;;;;;;;;;;;;;;16.78;58.03;100222.97;5037580;28;2002;-61
2022/08/01 04:25:39;;;;;;;;;;;;;;;17.22;54.04;100226.69;5038347;28;1247;-63
2022/08/01 04:28:05;;;;;;;;;;;;;;;17.30;52.26;100234.28;5019139;28;1051;-61
2022/08/01 04:30:31;;;;;;;;;;;;;;;17.43;57.96;100233.59;5018944;28;1918;-60
2022/08/01 04:32:57;;;;;;;;;;;;;;;16.15;63.13;100227.28;5047423;28;1029;-61
2022/08/01 04:35:22;;;;;;;;;;;;;;;18.78;59.18;100227.03;5023098;28;1355;-61
2022/08/01 04:37:48;;;;;;;;;;;;;;;15.99;64.11;100229.31;5029334;28;1121;-61
2022/08/01 04:40:13;;;;;;;;;;;;;;;16.31;61.20;100221.69;5021746;28;1334;-61
2022/08/01 04:42:40;;;;;;;;;;;;;;;17.10;55.44;100229.84;5023179;28;975;-61
2022/08/01 04:45:08;;;;;;;;;;;;;;;18.04;56.20;100224.88;5022321;28;1113;-61
2022/08/01 04:47:34;;;;;;;;;;;;;;;14.94;63.59;100220.88;5039351;28;1109;-61
2022/08/01 04:49:59;;;;;;;;;;;;;;;17.62;59.97;100202.59;5039372;28;1976;-61
2022/08/01 04:52:32;;;;;;;;;;;;;;;17.75;61.12;100201.03;5026724;28;2052;-61
2022/08/01 04:54:57;;;;;;;;;;;;;;;15.80;63.91;100200.88;5044919;28;1156;-61
2022/08/01 04:57:23;;;;;;;;;;;;;;;17.04;55.90;100201.59;5039145;28;1152;-61
2022/08/01 04:59:49;;;;;;;;;;;;;;;17.21;53.57;100206.63;5039033;28;1477;-61
2022/08/01 05:02:15;;;;;;;;;;;;;;;17.92;56.72;100211.56;5046667;28;1088;-60
2022/08/01 05:04:41;;;;;;;;;;;;;;;15.34;63.48;100219.13;5043804;28;1029;-60
2022/08/01 05:07:06;;;;;;;;;;;;;;;18.41;59.57;100212.22;5043506;28;1013;-60
2022/08/01 05:09:32;;;;;;;;;;;;;;;16.04;63.66;100210.06;5041481;28;1984;-60
2022/08/01 05:11:58;;;;;;;;;;;;;;;16.40;60.19;100206.25;5038651;28;940;-60
2022/08/01 05:14:27;;;;;;;;;;;;;;;18.33;58.98;100207.38;5038224;28;1069;-60
2022/08/01 05:16:52;;;;;;;;;;;;;;;14.84;66.25;100215.38;5038718;28;966;-60
2022/08/01 05:19:18;;;;;;;;;;;;;;;18.22;61.14;100209.50;5040723;28;1108;-60
2022/08/01 05:21:44;;;;;;;;;;;;;;;16.75;63.12;100210.63;5022671;28;2118;-60
2022/08/01 05:24:09;;;;;;;;;;;;;;;15.96;62.65;100213.38;5038226;28;1065;-60
2022/08/01 05:26:35;;;;;;;;;;;;;;;17.10;55.89;100214.16;5045892;28;966;-60
2022/08/01 05:29:00;;;;;;;;;;;;;;;17.24;53.42;100221.72;5046939;28;1106;-60
2022/08/01 05:31:26;;;;;;;;;;;;;;;17.98;55.17;100212.31;5048038;28;1906;-59
2022/08/01 05:33:51;;;;;;;;;;;;;;;15.23;62.64;100203.81;5019521;28;1077;-59
2022/08/01 05:36:16;;;;;;;;;;;;;;;17.68;60.12;100212.38;5041369;28;1132;-56
2022/08/01 05:38:42;;;;;;;;;;;;;;;18.65;59.39;100209.34;5041873;28;1065;-58
2022/08/01 05:41:07;;;;;;;;;;;;;;;15.15;66.73;100210.69;5043253;28;1183;-57
2022/08/01 05:43:33;;;;;;;;;;;;;;;18.39;61.34;100208.94;5040646;28;1022;-58
2022/08/01 05:45:58;;;;;;;;;;;;;;;16.29;64.38;100205.50;5040692;28;1168;-58
2022/08/01 05:48:24;;;;;;;;;;;;;;;16.07;64.08;100200.44;5037741;28;947;-57
2022/08/01 05:50:50;;;;;;;;;;;;;;;18.19;58.74;100210.06;5045505;28;1902;-57
2022/08/01 05:53:15;;;;;;;;;;;;;;;18.00;58.87;100216.41;5049708;28;1902;-56
2022/08/01 05:55:41;;;;;;;;;;;;;;;17.90;58.66;100217.31;5043686;28;1081;-58
2022/08/01 05:58:06;;;;;;;;;;;;;;;17.85;58.36;100211.06;5046378;28;1080;-58
2022/08/01 06:00:32;;;;;;;;;;;;;;;17.81;58.17;100215.53;5042075;28;938;-58
2022/08/01 06:02:57;;;;;;;;;;;;;;;17.78;58.01;100215.03;5024701;28;1033;-58
2022/08/01 06:05:23;;;;;;;;;;;;;;;17.74;57.98;100200.22;5041106;28;1076;-59
2022/08/01 06:07:48;;;;;;;;;;;;;;;17.74;57.63;100200.22;5040075;28;1089;-59
2022/08/01 06:10:13;;;;;;;;;;;;;;;17.70;57.68;100210.19;5045020;28;1979;-59
2022/08/01 06:12:39;;;;;;;;;;;;;;;17.64;57.47;100194.84;5015187;28;1135;-56
2022/08/01 06:15:06;;;;;;;;;;;;;;;17.66;57.26;100194.56;5042726;28;962;-56
2022/08/01 06:17:32;;;;;;;;;;;;;;;17.59;57.50;100192.97;5046969;28;919;-58
2022/08/01 06:19:57;;;;;;;;;;;;;;;17.57;57.33;100199.88;5040603;28;1061;-60
2022/08/01 06:22:23;;;;;;;;;;;;;;;17.54;57.40;100200.47;5041134;28;1989;-56
2022/08/01 06:24:48;;;;;;;;;;;;;;;17.53;57.28;100198.84;5039766;28;994;-57
2022/08/01 06:27:14;;;;;;;;;;;;;;;17.51;57.16;100198.31;5043241;28;964;-61
2022/08/01 06:29:39;;;;;;;;;;;;;;;17.49;57.42;100198.63;5042860;28;1906;-64
2022/08/01 06:32:06;;;;;;;;;;;;;;;17.40;57.53;100194.88;5041876;28;1399;-57
2022/08/01 06:34:32;;;;;;;;;;;;;;;17.45;57.25;100192.88;5045108;28;1271;-57
2022/08/01 06:36:57;;;;;;;;;;;;;;;17.44;57.47;100193.19;5040916;28;1054;-58
2022/08/01 06:39:22;;;;;;;;;;;;;;;17.42;57.55;100196.22;5042260;28;1195;-57
2022/08/01 06:41:48;;;;;;;;;;;;;;;17.42;57.59;100187.97;5037178;28;1141;-58
2022/08/01 06:44:13;;;;;;;;;;;;;;;17.40;57.32;100192.97;5035342;28;1122;-57
2022/08/01 06:46:39;;;;;;;;;;;;;;;17.41;57.42;100185.53;5038648;28;1275;-57
2022/08/01 06:49:04;;;;;;;;;;;;;;;17.42;57.34;100193.47;5037214;28;1057;-57
2022/08/01 06:51:30;;;;;;;;;;;;;;;17.43;57.49;100183.28;5037149;28;1910;-58
2022/08/01 06:53:55;;;;;;;;;;;;;;;17.41;57.14;100183.59;5042975;28;2267;-58
2022/08/01 06:56:21;;;;;;;;;;;;;;;17.47;57.35;100189.84;5042615;28;963;-58
2022/08/01 06:58:46;;;;;;;;;;;;;;;17.41;57.29;100169.84;5038487;28;1053;-59
2022/08/01 07:01:12;;;;;;;;;;;;;;;17.31;57.75;100174.66;5039520;28;962;-57
2022/08/01 07:03:37;;;;;;;;;;;;;;;17.31;57.54;100175.47;5039330;28;1002;-57
2022/08/01 07:06:03;;;;;;;;;;;;;;;17.24;57.71;100173.06;5037065;28;1117;-57
2022/08/01 07:08:28;;;;;;;;;;;;;;;17.28;57.55;100174.13;5031598;28;1298;-58
2022/08/01 07:10:55;;;;;;;;;;;;;;;17.31;57.56;100161.72;5018533;28;1934;-57
2022/08/01 07:13:24;;;;;;;;;;;;;;;17.43;57.45;100164.03;5036627;28;1089;-58
2022/08/01 07:15:50;;;;;;;;;;;;;;;17.49;57.09;100159.31;5031835;28;1061;-58
2022/08/01 07:18:15;;;;;;;;;;;;;;;17.49;57.24;100164.81;5036996;28;1065;-61
2022/08/01 07:20:41;;;;;;;;;;;;;;;17.40;57.54;100161.91;5041546;28;986;-63
2022/08/01 07:23:06;;;;;;;;;;;;;;;17.40;57.19;100162.72;5043994;28;2080;-60
2022/08/01 07:25:31;;;;;;;;;;;;;;;17.28;57.24;100163.13;5043151;28;1033;-56
2022/08/01 07:27:57;;;;;;;;;;;;;;;17.39;57.27;100150.09;5044151;28;974;-57
2022/08/01 07:30:22;;;;;;;;;;;;;;;17.33;57.41;100156.75;5036931;28;1993;-58
2022/08/01 07:32:48;;;;;;;;;;;;;;;17.45;57.18;100154.41;5039699;28;1149;-58
2022/08/01 07:35:13;;;;;;;;;;;;;;;17.38;57.18;100167.69;5038672;28;1077;-58
2022/08/01 07:37:39;;;;;;;;;;;;;;;17.41;57.16;100158.84;5038391;28;1152;-57
2022/08/01 07:40:05;;;;;;;;;;;;;;;17.37;57.30;100168.78;5036850;28;1022;-58
2022/08/01 07:42:31;;;;;;;;;;;;;;;17.40;57.45;100164.66;5037554;28;1175;-58
2022/08/01 07:44:56;;;;;;;;;;;;;;;17.38;57.39;100164.94;5041711;28;1053;-58
2022/08/01 07:47:25;;;;;;;;;;;;;;;17.40;57.32;100159.97;5041714;28;978;-58
2022/08/01 07:49:51;;;;;;;;;;;;;;;17.35;57.35;100171.03;5036580;28;1910;-58
2022/08/01 07:52:16;;;;;;;;;;;;;;;17.40;57.10;100159.97;5036132;28;2685;-58
2022/08/01 07:54:42;;;;;;;;;;;;;;;17.34;57.50;100157.59;5036561;28;1188;-58
2022/08/01 07:57:07;;;;;;;;;;;;;;;17.37;57.47;100168.78;5031062;28;1100;-57
2022/08/01 07:59:33;;;;;;;;;;;;;;;17.36;57.39;100163.59;5035248;28;1152;-58
2022/08/01 08:01:58;;;;;;;;;;;;;;;17.34;57.15;100163.88;5036394;28;991;-58
2022/08/01 08:04:24;;;;;;;;;;;;;;;17.35;57.27;100165.53;5018367;28;1117;-58
2022/08/01 08:06:49;;;;;;;;;;;;;;;17.36;57.13;100167.19;5036429;28;935;-58
2022/08/01 08:09:15;;;;;;;;;;;;;;;17.35;57.49;100164.69;5036084;28;1886;-58
2022/08/01 08:11:44;;;;;;;;;;;;;;;17.39;57.22;100165.75;5037412;28;1122;-57
2022/08/01 08:14:09;;;;;;;;;;;;;;;17.48;56.90;100171.44;5034243;28;1033;-58
2022/08/01 08:16:35;;;;;;;;;;;;;;;17.45;56.75;100170.91;5037877;28;1021;-57
2022/08/01 08:19:00;;;;;;;;;;;;;;;17.40;57.09;100168.22;5041462;28;1022;-57
2022/08/01 08:21:26;;;;;;;;;;;;;;;17.37;57.34;100174.28;5020231;28;1049;-58
2022/08/01 08:26:37;;;;;;;;;;;;;;;17.36;57.05;100171.84;5029519;28;1017;-60
2022/08/01 08:29:02;;;;;;;;;;;;;;;17.30;57.32;100176.56;5032505;28;1081;-58
2022/08/01 08:31:28;;;;;;;;;;;;;;;17.25;57.34;100182.13;5035875;28;1898;-58
2022/08/01 08:33:54;;;;;;;;;;;;;;;17.23;57.38;100178.88;5018183;28;1184;-59
2022/08/01 08:36:19;;;;;;;;;;;;;;;17.22;57.26;100168.97;5035588;28;851;-59
2022/08/01 08:38:44;;;;;;;;;;;;;;;17.24;57.25;100180.50;5036601;28;985;-59
2022/08/01 08:41:10;;;;;;;;;;;;;;;17.21;57.39;100184.66;5036380;28;969;-59
2022/08/01 08:43:35;;;;;;;;;;;;;;;17.19;57.16;100175.06;5036066;28;1136;-59
2022/08/01 08:46:01;;;;;;;;;;;;;;;17.18;57.10;100173.41;5036369;28;982;-59
2022/08/01 08:48:26;;;;;;;;;;;;;;;17.20;57.09;100179.47;5031969;28;794;-59
2022/08/01 08:50:51;;;;;;;;;;;;;;;17.15;57.37;100185.00;5018445;28;1964;-59
2022/08/01 08:53:17;;;;;;;;;;;;;;;17.14;57.01;100170.44;5013883;28;2483;-58
2022/08/01 08:55:43;;;;;;;;;;;;;;;17.12;57.25;100171.84;5018038;28;1026;-58
2022/08/01 08:58:12;;;;;;;;;;;;;;;17.13;57.21;100173.50;5018688;28;1149;-59
2022/08/01 09:00:38;;;;;;;;;;;;;;;17.07;57.40;100176.28;5035444;28;1010;-59
2022/08/01 09:03:04;;;;;;;;;;;;;;;17.15;57.03;100180.31;5001603;28;983;-58
2022/08/01 09:05:29;;;;;;;;;;;;;;;17.08;57.30;100177.09;5038786;28;990;-58
2022/08/01 09:07:54;;;;;;;;;;;;;;;17.12;57.14;100175.41;5035677;28;1283;-59
2022/08/01 09:10:20;;;;;;;;;;;;;;;17.06;57.24;100182.88;5035694;28;1985;-59
2022/08/01 09:13:04;;;;;;;;;;;;;;;17.09;57.48;100174.06;5033580;28;1110;-60
2022/08/01 09:15:42;;;;;;;;;;;;;;;17.05;57.35;100175.75;5034657;28;1164;-59
2022/08/01 09:18:07;;;;;;;;;;;;;;;17.07;57.51;100170.78;5034167;28;974;-56
2022/08/01 09:20:36;;;;;;;;;;;;;;;17.05;57.30;100167.50;5038343;28;1128;-57
2022/08/01 09:23:01;;;;;;;;;;;;;;;17.06;57.44;100166.41;5031593;28;2667;-59
2022/08/01 09:25:32;;;;;;;;;;;;;;;17.08;57.39;100161.44;5038372;28;1052;-57
2022/08/01 09:28:05;;;;;;;;;;;;;;;17.04;57.46;100163.16;5039234;28;1037;-57
2022/08/01 09:30:36;;;;;;;;;;;;;;;17.05;57.29;100156.53;5038897;28;1917;-58
2022/08/01 09:33:02;;;;;;;;;;;;;;;17.04;57.31;100156.81;5021732;28;1108;-57
2022/08/01 09:35:27;;;;;;;;;;;;;;;17.04;57.31;100154.06;5039033;28;951;-56
2022/08/01 09:38:05;;;;;;;;;;;;;;;17.03;57.24;100161.50;5045644;28;1046;-57
2022/08/01 09:41:00;;;;;;;;;;;;;;;17.03;57.30;100158.75;5026093;28;1069;-57
2022/08/01 09:43:28;;;;;;;;;;;;;;;17.02;57.08;100154.38;5025459;28;1217;-57
2022/08/01 09:45:54;;;;;;;;;;;;;;;17.03;57.24;100164.25;5039877;28;1062;-57
2022/08/01 09:48:20;;;;;;;;;;;;;;;17.04;56.94;100154.91;5043061;28;1061;-57
2022/08/01 09:50:46;;;;;;;;;;;;;;;16.99;57.21;100152.22;5041045;28;1902;-60
2022/08/01 09:53:12;;;;;;;;;;;;;;;17.04;57.00;100154.06;5021538;28;2073;-58
2022/08/01 09:55:37;;;;;;;;;;;;;;;17.02;57.20;100154.38;5044658;28;1049;-59
2022/08/01 09:58:04;;;;;;;;;;;;;;;16.95;57.50;100151.16;5045729;28;1282;-61
2022/08/01 10:00:29;;;;;;;;;;;;;;;17.01;57.34;100155.50;5041657;28;1041;-59
2022/08/01 10:02:56;;;;;;;;;;;;;;;16.93;57.07;100140.47;5042031;28;1160;-59
2022/08/01 10:05:31;;;;;;;;;;;;;;;16.96;57.27;100152.78;5038979;28;1155;-59
2022/08/01 10:07:57;;;;;;;;;;;;;;;17.00;57.08;100166.75;5038330;28;1152;-59
2022/08/01 10:10:22;;;;;;;;;;;;;;;17.00;57.33;100158.50;5037356;28;1918;-57
2022/08/01 10:12:48;;;;;;;;;;;;;;;16.97;57.27;100159.94;5036869;28;1287;-59
2022/08/01 10:15:16;;;;;;;;;;;;;;;16.96;57.37;100154.69;5018708;28;1216;-58
2022/08/01 10:17:44;;;;;;;;;;;;;;;16.98;57.21;100156.06;5035589;28;1155;-59
2022/08/01 10:20:10;;;;;;;;;;;;;;;16.99;57.19;100168.69;5013819;28;6974;-59
2022/08/01 10:22:36;;;;;;;;;;;;;;;16.95;57.23;100148.41;5030952;28;2178;-58
2022/08/01 10:25:02;;;;;;;;;;;;;;;17.02;57.10;100157.09;5013625;28;1220;-59
2022/08/01 10:27:28;;;;;;;;;;;;;;;17.02;57.10;100157.09;5032087;28;1287;-59
2022/08/01 10:29:57;;;;;;;;;;;;;;;17.02;57.02;100159.84;5029530;28;1973;-61
2022/08/01 10:32:23;;;;;;;;;;;;;;;17.02;57.32;100156.31;5036165;28;1216;-62
2022/08/01 10:34:51;;;;;;;;;;;;;;;16.99;57.22;100160.44;5033679;28;1070;-62
2022/08/01 10:37:17;;;;;;;;;;;;;;;16.98;57.26;100152.50;5012801;28;1149;-61
2022/08/01 10:39:42;;;;;;;;;;;;;;;17.01;57.19;100155.50;5034861;28;1294;-61
2022/08/01 10:42:09;;;;;;;;;;;;;;;16.99;57.41;100157.69;5033877;28;1338;-61
2022/08/01 10:44:34;;;;;;;;;;;;;;;17.04;57.03;100160.41;5028991;28;1239;-60
2022/08/01 10:47:20;;;;;;;;;;;;;;;17.02;57.31;100154.38;5030871;28;1188;-59
2022/08/01 10:49:53;;;;;;;;;;;;;;;16.99;57.29;100160.44;5031107;28;1902;-61
2022/08/01 10:52:19;;;;;;;;;;;;;;;17.02;57.02;100159.84;5016717;28;2002;-60
2022/08/01 10:54:44;;;;;;;;;;;;;;;16.98;57.20;100158.78;5032489;28;1243;-62
2022/08/01 10:57:11;;;;;;;;;;;;;;;16.98;57.29;100155.25;5031349;28;1262;-60
2022/08/01 10:59:47;;;;;;;;;;;;;;;16.93;57.44;100158.88;5029834;28;1199;-59
2022/08/01 11:02:12;;;;;;;;;;;;;;;16.98;57.21;100160.75;5035395;28;995;-58
2022/08/01 11:04:57;;;;;;;;;;;;;;;16.93;57.50;100145.94;5012249;28;1235;-59
2022/08/01 11:07:23;;;;;;;;;;;;;;;17.01;57.28;100133.53;5027414;28;1161;-59
2022/08/01 11:09:58;;;;;;;;;;;;;;;17.00;57.27;100153.00;5029954;28;1985;-59
2022/08/01 11:12:24;;;;;;;;;;;;;;;16.92;57.20;100143.50;5032965;28;1169;-59
2022/08/01 11:14:58;;;;;;;;;;;;;;;16.93;57.53;100145.16;5019918;28;1165;-57
2022/08/01 11:17:36;;;;;;;;;;;;;;;16.97;57.15;100146.19;5038257;28;1163;-59
2022/08/01 11:20:08;;;;;;;;;;;;;;;16.92;57.49;100146.25;5036581;28;1077;-59
2022/08/01 11:22:53;;;;;;;;;;;;;;;16.96;57.16;100141.81;5039868;28;2126;-60
2022/08/01 11:25:19;;;;;;;;;;;;;;;16.97;57.02;100129.72;5037268;28;1076;-59
2022/08/01 11:27:45;;;;;;;;;;;;;;;16.93;56.96;100126.72;5042595;28;1124;-59
2022/08/01 11:30:10;;;;;;;;;;;;;;;16.94;57.10;100130.28;5026030;28;1979;-59
2022/08/01 11:32:45;;;;;;;;;;;;;;;16.96;57.21;100119.00;5037559;28;1038;-59
2022/08/01 11:35:11;;;;;;;;;;;;;;;16.98;57.62;100120.34;5039693;28;1084;-60
2022/08/01 11:37:36;;;;;;;;;;;;;;;17.01;57.60;100128.03;5040118;28;1041;-59
2022/08/01 11:40:14;;;;;;;;;;;;;;;16.98;57.84;100125.84;5017115;28;1038;-59
2022/08/01 11:42:39;;;;;;;;;;;;;;;16.97;57.38;100121.47;5010521;28;1236;-61
2022/08/01 11:45:06;;;;;;;;;;;;;;;16.98;57.48;100123.09;5037890;28;1168;-62
2022/08/01 11:47:47;;;;;;;;;;;;;;;16.95;57.47;100120.13;5051363;28;1109;-61
2022/08/01 11:50:42;;;;;;;;;;;;;;;16.95;57.57;100115.44;5030683;28;1977;-60
2022/08/01 11:53:07;;;;;;;;;;;;;;;16.95;57.40;100120.13;5025134;28;2033;-58
2022/08/01 11:55:34;;;;;;;;;;;;;;;16.96;57.35;100119.00;5033850;28;1204;-58
2022/08/01 11:58:01;;;;;;;;;;;;;;;16.97;57.03;100123.38;5039364;28;1372;-59
2022/08/01 12:00:26;;;;;;;;;;;;;;;16.93;57.41;100120.44;5035170;28;1066;-60
2022/08/01 12:02:58;;;;;;;;;;;;;;;16.98;57.43;100120.34;5043637;28;1274;-59
2022/08/01 12:05:24;;;;;;;;;;;;;;;16.95;57.67;100120.13;5029029;28;1050;-59
2022/08/01 12:07:51;;;;;;;;;;;;;;;17.01;57.54;100110.72;5034689;28;1081;-55
2022/08/01 12:10:17;;;;;;;;;;;;;;;17.00;57.41;100109.06;5039411;28;1922;-57
2022/08/01 12:12:43;;;;;;;;;;;;;;;17.00;57.27;100109.06;5034216;28;1037;-58
2022/08/01 12:15:09;;;;;;;;;;;;;;;17.02;57.47;100107.66;5028501;28;1219;-60
2022/08/01 12:17:38;;;;;;;;;;;;;;;17.00;57.43;100104.41;5032527;28;1199;-57
2022/08/01 12:20:04;;;;;;;;;;;;;;;17.02;57.40;100107.66;5027875;28;1347;-59
2022/08/01 12:22:30;;;;;;;;;;;;;;;16.99;57.34;100110.19;5029889;28;2174;-57
2022/08/01 12:24:56;;;;;;;;;;;;;;;17.03;57.39;100111.25;5037555;28;951;-57
2022/08/01 12:27:28;;;;;;;;;;;;;;;16.98;57.34;100101.13;5035672;28;1329;-57
2022/08/01 12:29:54;;;;;;;;;;;;;;;17.03;57.10;100103.00;5030528;28;1910;-56
2022/08/01 12:32:30;;;;;;;;;;;;;;;17.01;57.38;100095.06;5032851;28;1262;-58
2022/08/01 12:34:56;;;;;;;;;;;;;;;17.08;57.41;100089.19;5036103;28;1022;-57
2022/08/01 12:37:22;;;;;;;;;;;;;;;17.09;57.07;100097.13;5036261;28;998;-58
2022/08/01 12:39:47;;;;;;;;;;;;;;;17.07;57.68;100093.06;5018029;28;1204;-60
2022/08/01 12:42:13;;;;;;;;;;;;;;;17.04;57.58;100078.00;5034353;28;1025;-58
2022/08/01 12:44:39;;;;;;;;;;;;;;;16.92;57.92;100085.81;5034682;28;1286;-60
2022/08/01 12:47:05;;;;;;;;;;;;;;;17.00;57.86;100076.94;5034870;28;1224;-59
2022/08/01 12:49:31;;;;;;;;;;;;;;;16.99;57.96;100080.00;5034424;28;1898;-59